Time;durP1;ratioP1;P1;durP2;ratioP2;P2;SDS_P1;SDS_P2;PMS_P1;PMS_P2;Temp;Humidity;BMP_temperature;BMP_pressure;BME280_temperature;BME280_humidity;BME280_pressure;Samples;Min_cycle;Max_cycle;Signal;HPM_P1;HPM_P2
2023/01/14 00:01:05;;;;;;;18.83;7.47;;;;;;;;;;5070820;28;20103;-81
2023/01/14 00:03:32;;;;;;;21.63;10.50;;;;;;;;;;5067266;28;20041;-82
2023/01/14 00:05:58;;;;;;;23.00;12.27;;;;;;;;;;5050870;28;20048;-81
2023/01/14 00:08:25;;;;;;;24.67;13.10;;;;;;;;;;5051431;28;20458;-81
2023/01/14 00:10:51;;;;;;;23.15;8.63;;;;;;;;;;5053040;28;20035;-82
2023/01/14 00:13:17;;;;;;;28.67;12.75;;;;;;;;;;5049367;28;20545;-81
2023/01/14 00:15:53;;;;;;;26.65;12.70;;;;;;;;;;5049225;28;20029;-81
2023/01/14 00:18:19;;;;;;;21.90;10.43;;;;;;;;;;5066467;28;20040;-82
2023/01/14 00:20:54;;;;;;;20.27;9.07;;;;;;;;;;5070520;28;20031;-82
2023/01/14 00:23:20;;;;;;;37.42;19.30;;;;;;;;;;5065544;28;20060;-81
2023/01/14 00:25:46;;;;;;;40.05;21.48;;;;;;;;;;5052548;28;20733;-81
2023/01/14 00:28:12;;;;;;;50.85;34.25;;;;;;;;;;5069905;28;20044;-81
2023/01/14 00:30:41;;;;;;;49.97;29.52;;;;;;;;;;5049149;28;20085;-81
2023/01/14 00:33:07;;;;;;;41.28;26.33;;;;;;;;;;5039916;28;20068;-82
2023/01/14 00:35:32;;;;;;;21.85;9.95;;;;;;;;;;5049043;28;20053;-81
2023/01/14 00:37:58;;;;;;;16.85;7.20;;;;;;;;;;5039322;28;20063;-82
2023/01/14 00:40:24;;;;;;;16.55;6.13;;;;;;;;;;5063313;28;20463;-82
2023/01/14 00:42:50;;;;;;;17.10;6.40;;;;;;;;;;5052925;28;20036;-82
2023/01/14 00:45:16;;;;;;;19.80;9.57;;;;;;;;;;5050976;28;20368;-82
2023/01/14 00:47:43;;;;;;;19.67;7.13;;;;;;;;;;5052157;28;20145;-79
2023/01/14 00:50:10;;;;;;;13.27;7.20;;;;;;;;;;5051938;28;20036;-81
2023/01/14 00:52:36;;;;;;;13.95;6.13;;;;;;;;;;5042820;28;20059;-81
2023/01/14 00:55:02;;;;;;;15.85;8.73;;;;;;;;;;5052574;28;20141;-81
2023/01/14 00:57:28;;;;;;;13.55;5.57;;;;;;;;;;5041804;28;20040;-81
2023/01/14 00:59:54;;;;;;;14.57;5.68;;;;;;;;;;5052430;28;20036;-81
2023/01/14 01:02:20;;;;;;;10.35;4.22;;;;;;;;;;5051715;28;20394;-81
2023/01/14 01:04:46;;;;;;;18.15;5.22;;;;;;;;;;5046766;28;20967;-81
2023/01/14 01:07:12;;;;;;;13.85;4.65;;;;;;;;;;5051436;28;20151;-82
2023/01/14 01:09:38;;;;;;;8.02;3.00;;;;;;;;;;5051624;28;20435;-82
2023/01/14 01:12:05;;;;;;;11.55;3.85;;;;;;;;;;5051107;28;20075;-82
2023/01/14 01:14:31;;;;;;;14.98;4.93;;;;;;;;;;5041878;28;20032;-81
2023/01/14 01:16:57;;;;;;;15.15;4.30;;;;;;;;;;5069708;28;20047;-81
2023/01/14 01:19:23;;;;;;;15.73;3.78;;;;;;;;;;5051397;28;20028;-82
2023/01/14 01:21:49;;;;;;;13.90;3.42;;;;;;;;;;5052266;28;20048;-82
2023/01/14 01:24:15;;;;;;;8.63;2.90;;;;;;;;;;5048783;28;20819;-82
2023/01/14 01:26:45;;;;;;;13.10;3.13;;;;;;;;;;5067999;28;20041;-82
2023/01/14 01:29:11;;;;;;;14.05;2.40;;;;;;;;;;5049398;28;20016;-82
2023/01/14 01:31:37;;;;;;;13.13;3.15;;;;;;;;;;5055611;28;20074;-82
2023/01/14 01:34:03;;;;;;;17.58;5.22;;;;;;;;;;5051183;28;20163;-82
2023/01/14 01:36:29;;;;;;;50.97;29.20;;;;;;;;;;5055915;28;20115;-82
2023/01/14 01:38:55;;;;;;;20.80;7.75;;;;;;;;;;5063614;28;20077;-82
2023/01/14 01:41:23;;;;;;;10.60;1.80;;;;;;;;;;5055470;28;20064;-82
2023/01/14 01:44:15;;;;;;;9.27;2.17;;;;;;;;;;5052884;28;20506;-81
2023/01/14 01:46:41;;;;;;;8.82;1.77;;;;;;;;;;5025813;28;20075;-80
2023/01/14 01:49:07;;;;;;;9.15;2.42;;;;;;;;;;5055281;28;20884;-82
2023/01/14 01:51:36;;;;;;;5.95;1.80;;;;;;;;;;5056395;28;20036;-82
2023/01/14 01:54:03;;;;;;;6.65;2.38;;;;;;;;;;5055592;28;20033;-82
2023/01/14 01:56:33;;;;;;;13.85;2.45;;;;;;;;;;5073519;28;20055;-82
2023/01/14 01:59:01;;;;;;;8.85;2.53;;;;;;;;;;5048804;28;20029;-82
2023/01/14 02:01:27;;;;;;;14.35;3.10;;;;;;;;;;5047127;28;20036;-82
2023/01/14 02:03:54;;;;;;;13.32;2.80;;;;;;;;;;5052054;28;20028;-82
2023/01/14 02:06:20;;;;;;;7.57;2.20;;;;;;;;;;5032429;28;20163;-82
2023/01/14 02:08:48;;;;;;;11.35;2.38;;;;;;;;;;5035900;28;20475;-81
2023/01/14 02:11:23;;;;;;;12.50;2.90;;;;;;;;;;5051281;28;20044;-81
2023/01/14 02:14:06;;;;;;;11.05;3.45;;;;;;;;;;5039838;28;20064;-82
2023/01/14 02:16:41;;;;;;;14.32;2.47;;;;;;;;;;5032736;28;20506;-81
2023/01/14 02:19:07;;;;;;;13.13;2.40;;;;;;;;;;5035150;28;20037;-81
2023/01/14 02:21:34;;;;;;;11.70;2.28;;;;;;;;;;5046655;28;20051;-82
2023/01/14 02:24:13;;;;;;;10.70;2.05;;;;;;;;;;5049494;28;20052;-81
2023/01/14 02:27:02;;;;;;;10.05;2.03;;;;;;;;;;5023951;28;20519;-81
2023/01/14 02:29:46;;;;;;;8.68;1.83;;;;;;;;;;5023266;28;20127;-81
2023/01/14 02:32:19;;;;;;;10.32;2.03;;;;;;;;;;5048172;28;20041;-81
2023/01/14 02:34:51;;;;;;;12.40;2.90;;;;;;;;;;5015882;28;20029;-81
2023/01/14 02:37:27;;;;;;;11.85;1.90;;;;;;;;;;5040624;28;20041;-81
2023/01/14 02:40:02;;;;;;;11.80;2.55;;;;;;;;;;5032015;28;20365;-81
2023/01/14 02:45:25;;;;;;;8.10;1.83;;;;;;;;;;5044150;28;20072;-80
2023/01/14 02:47:51;;;;;;;10.10;1.60;;;;;;;;;;5034327;28;20045;-80
2023/01/14 02:50:18;;;;;;;7.38;1.60;;;;;;;;;;5053005;28;20540;-81
2023/01/14 02:52:44;;;;;;;11.02;1.63;;;;;;;;;;5033386;28;20084;-81
2023/01/14 02:55:31;;;;;;;6.18;1.17;;;;;;;;;;5047935;28;20030;-81
2023/01/14 02:58:12;;;;;;;7.50;1.50;;;;;;;;;;5039576;28;20128;-81
2023/01/14 03:00:49;;;;;;;8.27;1.77;;;;;;;;;;5046753;28;20072;-81
2023/01/14 03:03:28;;;;;;;5.70;1.02;;;;;;;;;;5046626;28;20151;-81
2023/01/14 03:06:00;;;;;;;8.65;1.67;;;;;;;;;;5051029;28;20062;-81
2023/01/14 03:08:26;;;;;;;;;;;;;;;;;;5054692;28;20606;-81
2023/01/14 03:11:03;;;;;;;8.40;1.67;;;;;;;;;;5054647;28;19909;-81
2023/01/14 03:13:35;;;;;;;9.10;1.17;;;;;;;;;;5052520;28;20075;-81
2023/01/14 03:16:04;;;;;;;10.75;1.42;;;;;;;;;;5054667;28;20021;-81
2023/01/14 03:18:48;;;;;;;6.05;1.13;;;;;;;;;;5053848;28;20157;-81
2023/01/14 03:21:19;;;;;;;9.05;1.25;;;;;;;;;;5070896;28;20033;-81
2023/01/14 03:23:48;;;;;;;6.82;1.25;;;;;;;;;;5054010;28;20028;-81
2023/01/14 03:26:15;;;;;;;7.65;1.40;;;;;;;;;;5069602;28;20020;-81
2023/01/14 03:28:43;;;;;;;8.88;2.50;;;;;;;;;;5054445;28;20032;-81
2023/01/14 03:31:11;;;;;;;10.65;2.70;;;;;;;;;;5071567;28;20067;-81
2023/01/14 03:33:39;;;;;;;8.63;1.20;;;;;;;;;;5072556;28;20032;-81
2023/01/14 03:36:06;;;;;;;5.85;0.95;;;;;;;;;;5072140;28;20052;-81
2023/01/14 03:38:35;;;;;;;6.60;1.10;;;;;;;;;;5072369;28;20032;-81
2023/01/14 03:41:02;;;;;;;6.70;1.63;;;;;;;;;;5072263;28;20025;-81
2023/01/14 03:43:54;;;;;;;12.60;4.72;;;;;;;;;;5072470;28;20043;-81
2023/01/14 03:46:20;;;;;;;14.35;3.08;;;;;;;;;;5049334;28;20040;-81
2023/01/14 03:48:46;;;;;;;8.68;1.55;;;;;;;;;;5053306;28;20501;-81
2023/01/14 03:51:24;;;;;;;8.73;1.58;;;;;;;;;;5071482;28;20043;-81
2023/01/14 03:53:59;;;;;;;3.58;0.93;;;;;;;;;;5071860;28;20025;-81
2023/01/14 03:56:55;;;;;;;6.80;0.80;;;;;;;;;;5071183;28;20037;-81
2023/01/14 03:59:27;;;;;;;5.75;1.00;;;;;;;;;;4994224;28;20055;-81
2023/01/14 04:01:54;;;;;;;10.05;1.88;;;;;;;;;;5072373;28;20075;-81
2023/01/14 04:04:21;;;;;;;10.27;1.40;;;;;;;;;;5050419;28;20520;-81
2023/01/14 04:06:47;;;;;;;4.28;1.05;;;;;;;;;;5051904;28;20128;-81
2023/01/14 04:09:13;;;;;;;7.38;1.20;;;;;;;;;;5049772;28;20032;-81
2023/01/14 04:11:40;;;;;;;4.18;1.33;;;;;;;;;;5071219;28;20043;-81
2023/01/14 04:16:50;;;;;;;10.80;2.35;;;;;;;;;;5060343;28;20310;-81
2023/01/14 04:19:16;;;;;;;12.00;3.55;;;;;;;;;;5070844;28;20029;-81
2023/01/14 04:21:42;;;;;;;10.07;2.13;;;;;;;;;;5064778;28;20036;-81
2023/01/14 04:24:08;;;;;;;9.88;2.72;;;;;;;;;;5048331;28;20067;-81
2023/01/14 04:26:34;;;;;;;10.98;2.95;;;;;;;;;;5052524;28;20028;-81
2023/01/14 04:29:00;;;;;;;11.95;4.43;;;;;;;;;;5052537;28;20036;-81
2023/01/14 04:31:26;;;;;;;11.40;3.83;;;;;;;;;;5042129;28;20586;-81
2023/01/14 04:33:52;;;;;;;11.35;4.03;;;;;;;;;;5062128;28;20131;-81
2023/01/14 04:36:18;;;;;;;7.85;2.60;;;;;;;;;;5035199;28;20149;-81
2023/01/14 04:38:44;;;;;;;40.97;35.58;;;;;;;;;;5066674;28;20025;-81
2023/01/14 04:42:26;;;;;;;69.45;60.55;;;;;;;;;;5066730;28;20036;-81
2023/01/14 04:43:57;;;;;;;27.58;19.92;;;;;;;;;;5061995;28;20032;-81
2023/01/14 04:46:23;;;;;;;12.38;5.63;;;;;;;;;;5051741;28;20044;-81
2023/01/14 04:48:49;;;;;;;6.80;3.40;;;;;;;;;;5051692;28;20032;-81
2023/01/14 04:51:15;;;;;;;10.38;3.40;;;;;;;;;;5070542;28;20037;-81
2023/01/14 04:53:41;;;;;;;9.68;3.22;;;;;;;;;;5042985;28;20466;-81
2023/01/14 04:56:07;;;;;;;10.73;3.78;;;;;;;;;;5069905;28;20027;-80
2023/01/14 04:58:33;;;;;;;7.57;2.45;;;;;;;;;;5054203;28;20062;-81
2023/01/14 05:01:00;;;;;;;8.13;1.48;;;;;;;;;;5049911;28;20051;-81
2023/01/14 05:03:26;;;;;;;6.63;1.40;;;;;;;;;;5042359;28;20032;-81
2023/01/14 05:05:52;;;;;;;9.45;1.58;;;;;;;;;;5052022;28;20506;-81
2023/01/14 05:08:19;;;;;;;4.47;1.35;;;;;;;;;;5051844;28;20036;-81
2023/01/14 05:10:48;;;;;;;7.07;1.63;;;;;;;;;;5069901;28;20043;-81
2023/01/14 05:13:14;;;;;;;6.07;0.95;;;;;;;;;;5065097;28;20029;-81
2023/01/14 05:15:41;;;;;;;4.82;1.42;;;;;;;;;;5052012;28;20024;-81
2023/01/14 05:18:08;;;;;;;4.72;1.38;;;;;;;;;;5052883;28;20044;-82
2023/01/14 05:20:34;;;;;;;6.97;1.65;;;;;;;;;;5070626;28;20023;-82
2023/01/14 05:23:01;;;;;;;6.75;2.67;;;;;;;;;;5052618;28;20041;-82
2023/01/14 05:25:28;;;;;;;8.15;2.55;;;;;;;;;;5070363;28;20029;-81
2023/01/14 05:27:54;;;;;;;10.30;2.85;;;;;;;;;;5052889;28;20476;-82
2023/01/14 05:30:20;;;;;;;7.47;1.73;;;;;;;;;;5064696;28;20108;-81
2023/01/14 05:32:46;;;;;;;5.03;1.17;;;;;;;;;;5052611;28;20402;-82
2023/01/14 05:35:12;;;;;;;7.05;2.97;;;;;;;;;;5070047;28;20032;-81
2023/01/14 05:37:38;;;;;;;5.53;2.10;;;;;;;;;;5070456;28;20112;-81
2023/01/14 05:40:04;;;;;;;5.20;1.15;;;;;;;;;;5051604;28;20122;-82
2023/01/14 05:48:00;;;;;;;8.07;2.05;;;;;;;;;;5051183;28;20083;-81
2023/01/14 05:50:26;;;;;;;7.97;1.80;;;;;;;;;;5064537;28;20147;-81
2023/01/14 05:52:52;;;;;;;7.47;1.52;;;;;;;;;;5048255;28;20052;-81
2023/01/14 05:55:18;;;;;;;7.85;1.63;;;;;;;;;;5066908;28;20028;-82
2023/01/14 05:57:44;;;;;;;8.05;1.98;;;;;;;;;;5068839;28;20068;-82
2023/01/14 06:06:20;;;;;;;7.03;1.85;;;;;;;;;;5068799;28;20037;-82
2023/01/14 06:08:26;;;;;;;3.67;1.05;;;;;;;;;;5066845;28;20079;-82
2023/01/14 06:10:53;;;;;;;6.38;1.20;;;;;;;;;;5046533;28;20040;-82
2023/01/14 06:13:21;;;;;;;3.63;1.05;;;;;;;;;;5052323;28;20028;-82
2023/01/14 06:15:51;;;;;;;4.28;1.23;;;;;;;;;;5072402;28;20056;-81
2023/01/14 06:18:21;;;;;;;3.08;1.00;;;;;;;;;;5054437;28;20037;-82
2023/01/14 06:20:47;;;;;;;2.97;0.80;;;;;;;;;;5070837;28;20028;-82
2023/01/14 06:23:13;;;;;;;4.25;0.80;;;;;;;;;;5048307;28;20392;-81
2023/01/14 06:25:42;;;;;;;5.38;1.65;;;;;;;;;;5053216;28;20021;-82
2023/01/14 06:28:08;;;;;;;6.00;2.78;;;;;;;;;;5071931;28;20149;-81
2023/01/14 06:30:34;;;;;;;4.88;1.92;;;;;;;;;;5052202;28;20033;-82
2023/01/14 06:33:00;;;;;;;6.28;1.67;;;;;;;;;;5041750;28;20043;-85
2023/01/14 06:35:26;;;;;;;5.70;1.80;;;;;;;;;;5048149;28;20553;-84
2023/01/14 06:37:52;;;;;;;4.47;1.90;;;;;;;;;;5053336;28;20040;-83
2023/01/14 06:40:19;;;;;;;10.48;3.80;;;;;;;;;;5047925;28;20059;-84
2023/01/14 06:42:45;;;;;;;9.35;4.55;;;;;;;;;;5069628;28;20028;-83
2023/01/14 06:45:11;;;;;;;8.82;3.85;;;;;;;;;;5052238;28;20028;-83
2023/01/14 06:47:38;;;;;;;11.15;3.30;;;;;;;;;;5068131;28;20071;-81
2023/01/14 06:50:04;;;;;;;7.30;2.72;;;;;;;;;;5047620;28;20037;-82
2023/01/14 06:52:30;;;;;;;6.60;3.00;;;;;;;;;;5069809;28;20032;-81
2023/01/14 06:54:58;;;;;;;4.78;1.10;;;;;;;;;;5048568;28;20028;-81
2023/01/14 06:57:24;;;;;;;6.45;1.15;;;;;;;;;;5062225;28;20735;-82
2023/01/14 06:59:50;;;;;;;4.40;0.60;;;;;;;;;;5048868;28;20103;-82
2023/01/14 07:02:16;;;;;;;5.57;0.90;;;;;;;;;;5046910;28;20056;-83
2023/01/14 07:04:43;;;;;;;3.00;0.70;;;;;;;;;;5066786;28;20951;-82
2023/01/14 07:07:09;;;;;;;4.90;1.40;;;;;;;;;;5068901;28;20024;-82
2023/01/14 07:09:37;;;;;;;9.05;2.92;;;;;;;;;;5052382;28;20098;-83
2023/01/14 07:12:03;;;;;;;5.03;1.48;;;;;;;;;;5040632;28;20075;-82
2023/01/14 07:14:29;;;;;;;9.00;1.00;;;;;;;;;;5045984;28;20041;-83
2023/01/14 07:16:55;;;;;;;2.92;0.60;;;;;;;;;;5052776;28;20521;-82
2023/01/14 07:19:21;;;;;;;4.75;0.70;;;;;;;;;;5052267;28;20052;-83
2023/01/14 07:21:47;;;;;;;3.55;0.55;;;;;;;;;;5051751;28;20040;-82
2023/01/14 07:24:13;;;;;;;4.18;0.50;;;;;;;;;;5066960;28;20033;-82
2023/01/14 07:26:39;;;;;;;2.97;0.47;;;;;;;;;;5052333;28;20029;-82
2023/01/14 07:29:05;;;;;;;5.20;0.50;;;;;;;;;;5069165;28;20395;-82
2023/01/14 07:31:31;;;;;;;2.25;0.50;;;;;;;;;;5053232;28;20150;-82
2023/01/14 07:33:57;;;;;;;5.07;1.20;;;;;;;;;;5051111;28;20036;-82
2023/01/14 07:36:23;;;;;;;3.67;0.85;;;;;;;;;;5049622;28;20020;-82
2023/01/14 07:38:49;;;;;;;8.07;2.28;;;;;;;;;;5066525;28;20076;-82
2023/01/14 07:41:18;;;;;;;7.28;1.90;;;;;;;;;;5044545;28;20123;-82
2023/01/14 07:43:44;;;;;;;5.95;1.92;;;;;;;;;;5069666;28;20024;-82
2023/01/14 07:46:10;;;;;;;4.60;1.52;;;;;;;;;;5069554;28;20032;-82
2023/01/14 07:48:36;;;;;;;10.38;3.00;;;;;;;;;;5049297;28;20901;-82
2023/01/14 07:51:03;;;;;;;4.60;1.10;;;;;;;;;;5050686;28;20028;-83
2023/01/14 07:53:29;;;;;;;4.45;1.00;;;;;;;;;;5044024;28;20067;-83
2023/01/14 07:55:55;;;;;;;5.43;1.27;;;;;;;;;;5063951;28;20471;-83
2023/01/14 07:58:23;;;;;;;9.75;3.88;;;;;;;;;;5065728;28;20067;-82
2023/01/14 08:00:49;;;;;;;9.82;3.60;;;;;;;;;;5048616;28;20392;-83
2023/01/14 08:03:15;;;;;;;9.60;3.33;;;;;;;;;;5069334;28;20032;-82
2023/01/14 08:05:41;;;;;;;7.55;3.33;;;;;;;;;;5042538;28;20072;-82
2023/01/14 08:08:07;;;;;;;10.05;2.50;;;;;;;;;;5065847;28;20103;-83
2023/01/14 08:10:33;;;;;;;8.60;2.65;;;;;;;;;;5067201;28;20678;-82
2023/01/14 08:12:59;;;;;;;6.03;2.90;;;;;;;;;;5069891;28;20471;-82
2023/01/14 08:15:25;;;;;;;5.90;2.22;;;;;;;;;;5051695;28;20123;-83
2023/01/14 08:17:51;;;;;;;6.72;2.10;;;;;;;;;;5069501;28;20047;-83
2023/01/14 08:20:22;;;;;;;5.47;2.40;;;;;;;;;;5069299;28;20134;-82
2023/01/14 08:22:48;;;;;;;7.68;3.35;;;;;;;;;;5050599;28;20033;-82
2023/01/14 08:25:14;;;;;;;11.77;6.00;;;;;;;;;;5051957;28;20043;-82
2023/01/14 08:27:40;;;;;;;10.13;5.80;;;;;;;;;;5050673;28;20064;-82
2023/01/14 08:30:06;;;;;;;11.02;4.53;;;;;;;;;;5065240;28;20140;-83
2023/01/14 08:32:32;;;;;;;9.30;2.28;;;;;;;;;;5068728;28;20079;-82
2023/01/14 08:34:58;;;;;;;7.05;2.78;;;;;;;;;;5040602;28;20037;-83
2023/01/14 08:37:24;;;;;;;4.63;1.20;;;;;;;;;;5066730;28;20047;-82
2023/01/14 08:39:50;;;;;;;6.93;2.08;;;;;;;;;;5050754;28;20372;-82
2023/01/14 08:42:16;;;;;;;7.65;3.10;;;;;;;;;;5067909;28;20036;-82
2023/01/14 08:44:42;;;;;;;14.18;5.30;;;;;;;;;;5068847;28;20036;-82
2023/01/14 08:47:08;;;;;;;12.23;4.32;;;;;;;;;;5069615;28;20039;-83
2023/01/14 08:49:34;;;;;;;18.92;8.43;;;;;;;;;;5065122;28;20538;-83
2023/01/14 08:52:00;;;;;;;11.88;5.38;;;;;;;;;;5041497;28;20044;-82
2023/01/14 08:54:27;;;;;;;15.52;4.90;;;;;;;;;;5049930;28;20079;-83
2023/01/14 08:56:56;;;;;;;9.73;3.53;;;;;;;;;;5050317;28;20144;-82
2023/01/14 08:59:22;;;;;;;12.30;4.03;;;;;;;;;;5063184;28;20393;-82
2023/01/14 09:01:48;;;;;;;14.90;3.92;;;;;;;;;;5050624;28;20032;-82
2023/01/14 09:04:14;;;;;;;8.50;3.13;;;;;;;;;;5049729;28;20487;-82
2023/01/14 09:17:40;;;;;;;7.40;2.67;;;;;;;;;;5069004;28;20046;-82
2023/01/14 09:20:09;;;;;;;8.60;3.08;;;;;;;;;;5068805;28;20394;-82
2023/01/14 09:22:35;;;;;;;9.05;3.05;;;;;;;;;;5067024;28;20028;-82
2023/01/14 09:25:01;;;;;;;9.43;3.17;;;;;;;;;;5050967;28;20037;-82
2023/01/14 09:27:29;;;;;;;11.70;3.72;;;;;;;;;;5066922;28;20451;-82
2023/01/14 09:29:55;;;;;;;12.32;4.65;;;;;;;;;;5051634;28;20025;-82
2023/01/14 09:32:21;;;;;;;11.15;3.78;;;;;;;;;;5050075;28;20102;-82
2023/01/14 09:34:49;;;;;;;11.70;4.10;;;;;;;;;;5051878;28;20032;-82
2023/01/14 09:37:16;;;;;;;19.85;9.50;;;;;;;;;;5050949;28;20649;-82
2023/01/14 09:39:42;;;;;;;48.00;26.58;;;;;;;;;;5047908;28;20547;-82
2023/01/14 09:42:12;;;;;;;103.45;60.03;;;;;;;;;;5048431;28;20044;-81
2023/01/14 09:44:40;;;;;;;69.00;42.10;;;;;;;;;;5067893;28;20032;-82
2023/01/14 09:47:08;;;;;;;43.85;25.27;;;;;;;;;;5067036;28;20040;-82
2023/01/14 09:49:35;;;;;;;27.05;14.55;;;;;;;;;;5067161;28;20108;-82
2023/01/14 09:52:04;;;;;;;14.02;6.13;;;;;;;;;;5072190;28;20039;-82
2023/01/14 09:54:39;;;;;;;14.82;7.20;;;;;;;;;;5070675;28;20223;-82
2023/01/14 09:57:22;;;;;;;15.75;7.10;;;;;;;;;;5071006;28;20054;-82
2023/01/14 09:59:51;;;;;;;13.45;6.25;;;;;;;;;;5067280;28;20144;-82
2023/01/14 10:02:23;;;;;;;13.43;5.47;;;;;;;;;;5054113;28;20032;-82
2023/01/14 10:05:04;;;;;;;14.20;5.13;;;;;;;;;;5051574;28;20427;-82
2023/01/14 10:07:31;;;;;;;10.95;4.97;;;;;;;;;;5060722;28;20082;-82
2023/01/14 10:09:57;;;;;;;13.57;5.25;;;;;;;;;;5053426;28;20124;-82
2023/01/14 10:12:29;;;;;;;15.10;6.60;;;;;;;;;;5072104;28;20043;-82
2023/01/14 10:15:10;;;;;;;12.52;5.50;;;;;;;;;;5067969;28;20032;-82
2023/01/14 10:17:38;;;;;;;10.20;3.50;;;;;;;;;;5053027;28;20125;-82
2023/01/14 10:20:10;;;;;;;8.30;3.35;;;;;;;;;;5068521;28;20049;-82
2023/01/14 10:22:36;;;;;;;;;;;;;;;;;;5050832;28;20029;-82
2023/01/14 10:25:04;;;;;;;12.00;3.92;;;;;;;;;;5064562;28;20984;-82
2023/01/14 10:27:31;;;;;;;13.05;4.20;;;;;;;;;;5070090;28;20116;-82
2023/01/14 10:30:01;;;;;;;10.75;4.82;;;;;;;;;;5053265;28;20475;-82
2023/01/14 10:32:27;;;;;;;13.30;4.97;;;;;;;;;;5072109;28;20028;-82
2023/01/14 10:34:55;;;;;;;11.93;4.90;;;;;;;;;;5053298;28;20395;-82
2023/01/14 10:37:21;;;;;;;12.95;6.13;;;;;;;;;;5053504;28;20446;-82
2023/01/14 10:39:52;;;;;;;13.98;6.10;;;;;;;;;;5043606;28;20169;-82
2023/01/14 10:42:23;;;;;;;11.25;4.72;;;;;;;;;;5071610;28;20036;-82
2023/01/14 10:44:49;;;;;;;10.80;4.38;;;;;;;;;;5052389;28;20119;-82
2023/01/14 10:47:16;;;;;;;11.27;3.97;;;;;;;;;;5061435;28;20025;-82
2023/01/14 10:49:50;;;;;;;13.00;5.30;;;;;;;;;;5050926;28;20033;-82
2023/01/14 10:52:23;;;;;;;15.23;5.68;;;;;;;;;;5068292;28;20036;-82
2023/01/14 10:54:56;;;;;;;10.75;4.10;;;;;;;;;;5070322;28;20033;-82
2023/01/14 10:57:22;;;;;;;9.52;3.47;;;;;;;;;;5049800;28;20416;-82
2023/01/14 10:59:52;;;;;;;9.60;3.97;;;;;;;;;;5068417;28;20033;-82
2023/01/14 11:02:20;;;;;;;9.88;4.43;;;;;;;;;;5072839;28;20456;-83
2023/01/14 11:04:46;;;;;;;18.52;6.38;;;;;;;;;;5070925;28;20499;-82
2023/01/14 11:07:18;;;;;;;13.82;5.90;;;;;;;;;;5052097;28;20128;-82
2023/01/14 11:09:44;;;;;;;12.10;5.60;;;;;;;;;;5066661;28;20040;-82
2023/01/14 11:12:24;;;;;;;11.63;5.53;;;;;;;;;;5052720;28;20094;-82
2023/01/14 11:14:51;;;;;;;15.57;4.70;;;;;;;;;;5061918;28;20160;-82
2023/01/14 11:17:30;;;;;;;14.48;4.57;;;;;;;;;;5064165;28;20025;-82
2023/01/14 11:20:32;;;;;;;13.00;4.60;;;;;;;;;;5070342;28;20729;-82
2023/01/14 11:23:00;;;;;;;10.98;4.68;;;;;;;;;;5008227;28;20026;-82
2023/01/14 11:25:26;;;;;;;13.63;5.35;;;;;;;;;;5053189;28;20167;-82
2023/01/14 11:27:53;;;;;;;13.52;5.07;;;;;;;;;;5070887;28;20056;-82
2023/01/14 11:30:20;;;;;;;13.55;4.95;;;;;;;;;;5052105;28;20093;-82
2023/01/14 11:32:50;;;;;;;7.47;3.00;;;;;;;;;;5046302;28;20096;-82
2023/01/14 11:35:21;;;;;;;7.35;2.78;;;;;;;;;;5068861;28;20075;-82
2023/01/14 11:37:48;;;;;;;6.85;2.13;;;;;;;;;;5069479;28;20566;-82
2023/01/14 11:40:23;;;;;;;9.20;3.20;;;;;;;;;;5070488;28;20048;-82
2023/01/14 11:42:50;;;;;;;12.10;3.60;;;;;;;;;;5040887;28;20123;-82
2023/01/14 11:45:21;;;;;;;8.45;2.65;;;;;;;;;;5057385;28;20056;-82
2023/01/14 11:47:55;;;;;;;8.52;3.63;;;;;;;;;;5070059;28;20030;-82
2023/01/14 11:50:25;;;;;;;6.18;3.10;;;;;;;;;;5048032;28;20037;-82
2023/01/14 11:52:54;;;;;;;8.25;3.05;;;;;;;;;;5046009;28;20037;-82
2023/01/14 11:55:20;;;;;;;10.82;3.17;;;;;;;;;;5042403;28;20043;-82
2023/01/14 11:57:47;;;;;;;10.23;3.47;;;;;;;;;;5067415;28;20115;-82
2023/01/14 12:00:13;;;;;;;19.48;7.65;;;;;;;;;;5069615;28;20029;-82
2023/01/14 12:02:41;;;;;;;23.75;10.00;;;;;;;;;;5064288;28;20028;-82
2023/01/14 12:05:13;;;;;;;14.15;5.43;;;;;;;;;;5062435;28;20057;-82
2023/01/14 12:07:47;;;;;;;11.23;4.72;;;;;;;;;;5050081;28;20094;-82
2023/01/14 12:10:21;;;;;;;9.60;3.67;;;;;;;;;;5069021;28;20029;-82
2023/01/14 12:18:43;;;;;;;9.82;2.75;;;;;;;;;;5065253;28;20052;-82
2023/01/14 12:21:09;;;;;;;11.40;4.68;;;;;;;;;;5051332;28;20043;-82
2023/01/14 12:23:43;;;;;;;27.40;15.45;;;;;;;;;;5050300;28;20028;-81
2023/01/14 12:26:16;;;;;;;16.25;6.82;;;;;;;;;;5069796;28;20044;-82
2023/01/14 12:28:42;;;;;;;;;;;;;;;;;;5050479;28;20037;-82
2023/01/14 12:31:07;;;;;;;12.73;4.57;;;;;;;;;;5066992;28;19928;-81
2023/01/14 12:33:36;;;;;;;15.65;5.45;;;;;;;;;;5051417;28;20128;-82
2023/01/14 12:36:22;;;;;;;11.52;4.00;;;;;;;;;;5069205;28;20028;-82
2023/01/14 12:47:11;;;;;;;;;;;;;;;;;;5068861;28;20682;-82
2023/01/14 12:49:39;;;;;;;11.13;4.28;;;;;;;;;;5068369;28;19952;-82
2023/01/14 12:52:06;;;;;;;9.65;4.15;;;;;;;;;;5049375;28;20032;-82
2023/01/14 12:54:34;;;;;;;12.07;3.90;;;;;;;;;;5066888;28;20107;-82
2023/01/14 12:57:01;;;;;;;10.50;4.05;;;;;;;;;;5050007;28;20482;-82
2023/01/14 12:59:35;;;;;;;9.70;3.88;;;;;;;;;;5045048;28;20112;-82
2023/01/14 13:02:03;;;;;;;9.93;4.15;;;;;;;;;;5065256;28;20283;-83
2023/01/14 13:04:33;;;;;;;10.98;4.78;;;;;;;;;;5042014;28;20048;-82
2023/01/14 13:07:00;;;;;;;8.45;4.05;;;;;;;;;;5058749;28;20028;-82
2023/01/14 13:09:35;;;;;;;8.32;3.42;;;;;;;;;;5063815;28;20037;-82
2023/01/14 13:12:01;;;;;;;11.68;3.88;;;;;;;;;;5067522;28;20085;-82
2023/01/14 13:14:39;;;;;;;11.55;4.03;;;;;;;;;;5042294;28;20033;-82
2023/01/14 13:17:17;;;;;;;8.52;3.80;;;;;;;;;;5043945;28;20036;-82
2023/01/14 13:19:49;;;;;;;10.07;4.10;;;;;;;;;;5067343;28;20043;-82
2023/01/14 13:22:35;;;;;;;9.05;3.85;;;;;;;;;;5051013;28;20037;-81
2023/01/14 13:25:03;;;;;;;11.43;4.28;;;;;;;;;;5072521;28;20098;-82
2023/01/14 13:27:35;;;;;;;12.25;3.60;;;;;;;;;;5068415;28;20025;-82
2023/01/14 13:30:19;;;;;;;9.50;3.67;;;;;;;;;;5069429;28;20652;-82
2023/01/14 13:32:52;;;;;;;9.88;4.20;;;;;;;;;;5071455;28;20090;-82
2023/01/14 13:35:19;;;;;;;9.18;4.22;;;;;;;;;;5065409;28;20110;-82
2023/01/14 13:37:46;;;;;;;12.32;6.03;;;;;;;;;;5043897;28;20033;-82
2023/01/14 13:40:16;;;;;;;11.80;4.85;;;;;;;;;;5065802;28;20032;-82
2023/01/14 13:42:44;;;;;;;13.98;6.20;;;;;;;;;;5054191;28;20028;-82
2023/01/14 13:45:24;;;;;;;11.50;5.25;;;;;;;;;;5072481;28;20036;-82
2023/01/14 13:47:50;;;;;;;12.55;4.70;;;;;;;;;;5072753;28;20093;-82
2023/01/14 13:50:26;;;;;;;13.60;4.95;;;;;;;;;;5071731;28;20043;-82
2023/01/14 13:52:59;;;;;;;11.90;5.00;;;;;;;;;;5069905;28;20045;-82
2023/01/14 13:55:27;;;;;;;8.43;3.75;;;;;;;;;;5052091;28;20032;-82
2023/01/14 13:57:55;;;;;;;10.77;3.20;;;;;;;;;;5070235;28;20036;-82
2023/01/14 14:00:23;;;;;;;11.07;3.30;;;;;;;;;;5063289;28;20065;-82
2023/01/14 14:02:49;;;;;;;8.43;2.72;;;;;;;;;;5067969;28;20030;-82
2023/01/14 14:05:20;;;;;;;11.38;3.55;;;;;;;;;;5053165;28;20041;-82
2023/01/14 14:07:46;;;;;;;16.40;6.80;;;;;;;;;;5053289;28;20035;-82
2023/01/14 14:10:15;;;;;;;11.35;4.40;;;;;;;;;;5071005;28;20040;-82
2023/01/14 14:15:28;;;;;;;9.15;3.67;;;;;;;;;;5070437;28;20071;-82
2023/01/14 14:18:00;;;;;;;6.45;2.60;;;;;;;;;;5053931;28;20475;-82
2023/01/14 14:20:46;;;;;;;8.10;2.80;;;;;;;;;;5072615;28;20032;-82
2023/01/14 14:23:21;;;;;;;7.97;2.60;;;;;;;;;;5071348;28;20035;-82
2023/01/14 14:25:47;;;;;;;9.90;3.35;;;;;;;;;;5057365;28;20024;-82
2023/01/14 14:28:20;;;;;;;6.40;2.63;;;;;;;;;;5048940;28;20060;-82
2023/01/14 14:30:49;;;;;;;8.63;4.40;;;;;;;;;;5071959;28;20064;-82
2023/01/14 14:33:33;;;;;;;7.07;3.13;;;;;;;;;;5070746;28;20040;-82
2023/01/14 14:36:06;;;;;;;7.97;3.25;;;;;;;;;;5053318;28;20036;-82
2023/01/14 14:38:32;;;;;;;7.60;3.17;;;;;;;;;;5050240;28;20052;-82
2023/01/14 14:41:04;;;;;;;13.70;4.13;;;;;;;;;;5071840;28;20024;-82
2023/01/14 14:43:30;;;;;;;10.38;3.80;;;;;;;;;;5036856;28;20025;-82
2023/01/14 14:46:05;;;;;;;11.40;3.60;;;;;;;;;;5071460;28;20502;-82
2023/01/14 14:48:33;;;;;;;17.25;7.15;;;;;;;;;;5046112;28;20048;-82
2023/01/14 14:50:59;;;;;;;19.17;7.50;;;;;;;;;;5071687;28;20056;-82
2023/01/14 14:53:27;;;;;;;17.77;7.28;;;;;;;;;;5051205;28;20561;-82
2023/01/14 14:55:54;;;;;;;17.52;6.43;;;;;;;;;;5068118;28;20028;-82
2023/01/14 14:58:22;;;;;;;17.95;6.97;;;;;;;;;;5069577;28;20488;-81
2023/01/14 15:00:53;;;;;;;18.75;9.18;;;;;;;;;;5052401;28;20032;-82
2023/01/14 15:03:20;;;;;;;22.30;10.38;;;;;;;;;;5069695;28;20094;-82
2023/01/14 15:05:47;;;;;;;23.48;10.75;;;;;;;;;;5068674;28;20142;-82
2023/01/14 15:08:24;;;;;;;17.85;7.47;;;;;;;;;;5046983;28;20468;-82
2023/01/14 15:10:50;;;;;;;19.27;6.65;;;;;;;;;;5057104;28;20024;-82
2023/01/14 15:13:36;;;;;;;15.55;7.10;;;;;;;;;;5068408;28;20130;-83
2023/01/14 15:16:03;;;;;;;16.70;7.28;;;;;;;;;;5044661;28;20898;-82
2023/01/14 15:18:38;;;;;;;18.92;7.50;;;;;;;;;;5066630;28;20036;-82
2023/01/14 15:21:05;;;;;;;13.43;7.07;;;;;;;;;;5066682;28;20033;-82
2023/01/14 15:23:32;;;;;;;15.77;6.55;;;;;;;;;;5063959;28;20619;-82
2023/01/14 15:25:59;;;;;;;17.13;6.45;;;;;;;;;;5064715;28;20029;-82
2023/01/14 15:28:25;;;;;;;14.55;6.38;;;;;;;;;;5049185;28;20033;-83
2023/01/14 15:30:58;;;;;;;13.35;6.20;;;;;;;;;;5050990;28;20032;-82